Time;durP1;ratioP1;P1;durP2;ratioP2;P2;SDS_P1;SDS_P2;PMS_P1;PMS_P2;Temp;Humidity;BMP_temperature;BMP_pressure;BME280_temperature;BME280_humidity;BME280_pressure;Samples;Min_cycle;Max_cycle;Signal;HPM_P1;HPM_P2
2022/08/22 00:01:13;;;;;;;5.90;1.10;;;18.20;99.60;;;17.38;100.00;97465.78;5018565;28;20060;-68
2022/08/22 00:03:45;;;;;;;6.35;1.38;;;;;;;17.36;100.00;97460.66;5015679;28;20050;-67
2022/08/22 00:06:21;;;;;;;;;;;18.10;99.90;;;17.22;100.00;97464.28;5013294;28;20063;-67
2022/08/22 00:09:14;;;;;;;6.90;1.23;;;17.90;99.90;;;17.02;100.00;97462.25;5032616;28;19920;-67
2022/08/22 00:12:25;;;;;;;;;;;17.80;99.90;;;16.92;100.00;97469.88;5022887;28;20136;-67
2022/08/22 00:15:14;;;;;;;8.43;1.15;;;17.80;99.90;;;16.96;100.00;97460.03;5020270;28;19943;-68
2022/08/22 00:18:28;;;;;;;2.78;0.90;;;17.70;99.90;;;17.00;100.00;97464.13;5020373;28;20053;-67
2022/08/22 00:21:18;;;;;;;6.55;1.20;;;17.70;99.90;;;17.17;100.00;97468.16;5020515;28;20053;-67
2022/08/22 00:23:51;;;;;;;6.45;0.93;;;17.80;99.90;;;17.13;100.00;97462.31;5022807;28;20049;-68
2022/08/22 00:26:39;;;;;;;8.55;1.27;;;17.70;99.90;;;17.21;100.00;97459.97;5022175;28;20042;-68
2022/08/22 00:29:22;;;;;;;3.70;0.98;;;17.80;99.90;;;17.13;100.00;97457.06;4992072;28;20045;-67
2022/08/22 00:32:13;;;;;;;5.25;1.23;;;17.80;99.90;;;17.16;100.00;97458.63;5021812;28;20109;-68
2022/08/22 00:34:57;;;;;;;3.00;0.90;;;17.80;99.90;;;17.11;100.00;97453.72;5018177;28;20054;-68
2022/08/22 00:37:42;;;;;;;9.85;1.60;;;17.80;99.90;;;17.11;100.00;97458.97;5017468;28;20577;-67
2022/08/22 00:41:05;;;;;;;5.53;1.10;;;17.70;99.90;;;17.12;100.00;97458.84;5020808;28;20159;-68
2022/08/22 00:44:29;;;;;;;4.20;1.00;;;17.70;99.90;;;17.08;100.00;97460.03;5021659;28;20427;-68
2022/08/22 00:47:44;;;;;;;4.63;1.10;;;17.70;99.90;;;17.04;100.00;97457.72;5018933;28;20518;-68
2022/08/22 00:50:23;;;;;;;5.32;0.88;;;17.70;99.90;;;17.06;100.00;97455.81;5017679;28;20172;-68
2022/08/22 00:53:21;;;;;;;3.75;1.00;;;17.70;99.90;;;17.02;100.00;97454.38;5022982;28;20108;-68
2022/08/22 00:56:00;;;;;;;3.83;1.00;;;17.70;99.90;;;16.95;100.00;97464.44;5021928;28;20055;-68
2022/08/22 00:58:44;;;;;;;7.32;0.90;;;17.60;99.90;;;16.95;100.00;97463.63;5021685;28;20128;-67
2022/08/22 01:01:14;;;;;;;4.50;1.30;;;17.60;99.90;;;17.01;100.00;97465.78;5020644;28;20046;-67
2022/08/22 01:03:46;;;;;;;3.60;1.05;;;17.60;99.90;;;17.04;100.00;97458.56;5023452;28;20516;-69
2022/08/22 01:06:35;;;;;;;5.32;1.40;;;17.60;99.90;;;17.08;100.00;97453.91;5023741;28;20614;-68
2022/08/22 01:09:42;;;;;;;7.30;1.27;;;17.70;99.90;;;17.07;100.00;97460.13;5025622;28;20225;-68
2022/08/22 01:12:40;;;;;;;5.03;1.02;;;17.70;99.90;;;17.04;100.00;97452.47;5025223;28;20055;-69
2022/08/22 01:15:23;;;;;;;4.72;1.10;;;17.70;99.90;;;17.05;100.00;97451.53;5024276;28;20124;-68
2022/08/22 01:18:17;;;;;;;3.20;0.90;;;17.70;99.90;;;17.01;100.00;97450.06;5016842;28;20096;-68
2022/08/22 01:21:24;;;;;;;6.53;1.23;;;17.60;99.90;;;17.00;100.00;97446.59;5025472;28;20101;-68
2022/08/22 01:24:25;;;;;;;4.15;1.10;;;17.60;99.90;;;16.90;100.00;97446.41;5024416;28;20076;-68
2022/08/22 01:28:00;;;;;;;6.75;1.02;;;17.60;99.90;;;16.77;100.00;97447.34;5024287;28;20045;-68
2022/08/22 01:31:22;;;;;;;3.28;0.90;;;17.60;99.90;;;16.56;100.00;97454.91;5022564;28;20049;-69
2022/08/22 01:34:32;;;;;;;5.75;1.00;;;17.50;99.90;;;16.62;100.00;97457.09;5022755;28;20132;-69
2022/08/22 01:37:32;;;;;;;6.25;1.20;;;17.40;99.90;;;16.52;100.00;97451.66;5019513;28;20771;-69
2022/08/22 01:40:45;;;;;;;5.22;1.08;;;17.30;99.90;;;16.51;100.00;97458.69;5022496;28;20124;-68
2022/08/22 01:44:20;;;;;;;7.60;1.17;;;17.30;99.90;;;16.42;100.00;97453.22;5024193;28;20053;-69
2022/08/22 01:47:21;;;;;;;5.00;1.00;;;17.20;99.90;;;16.26;100.00;97453.44;5022466;28;20085;-68
2022/08/22 01:49:59;;;;;;;3.10;0.82;;;;;;;16.26;100.00;97456.03;5021982;28;20591;-68
2022/08/22 01:52:47;;;;;;;4.25;1.00;;;16.90;99.90;;;16.00;100.00;97455.19;5019254;28;20132;-69
2022/08/22 01:55:25;;;;;;;6.65;1.10;;;16.80;99.90;;;15.87;100.00;97460.38;5024224;28;20054;-69
2022/08/22 01:57:57;;;;;;;4.60;0.95;;;16.70;99.90;;;15.85;100.00;97464.88;5019694;28;20140;-69
2022/08/22 02:00:33;;;;;;;4.05;0.90;;;16.70;99.90;;;15.88;100.00;97467.31;5023769;28;20050;-68
2022/08/22 02:03:25;;;;;;;4.47;1.00;;;16.60;99.90;;;15.75;100.00;97469.88;5022883;28;20049;-69
2022/08/22 02:06:16;;;;;;;5.82;1.00;;;16.50;99.90;;;15.77;100.00;97468.00;5020319;28;20311;-69
2022/08/22 02:09:00;;;;;;;4.45;1.15;;;16.50;99.90;;;15.50;100.00;97473.22;5022916;28;20141;-68
2022/08/22 02:11:41;;;;;;;3.40;0.95;;;16.30;99.90;;;15.43;100.00;97474.56;5021579;28;20490;-68
2022/08/22 02:14:59;;;;;;;3.88;0.80;;;16.20;99.90;;;15.26;100.00;97480.88;5018770;28;20057;-69
2022/08/22 02:17:31;;;;;;;5.95;1.25;;;16.10;99.90;;;15.30;100.00;97495.41;4981469;28;20136;-68
2022/08/22 02:20:32;;;;;;;4.32;1.08;;;16.10;99.90;;;15.23;100.00;97491.50;4982136;28;20089;-68
2022/08/22 02:23:32;;;;;;;2.35;1.10;;;16.10;99.90;;;15.22;100.00;97490.66;5012855;28;20053;-68
2022/08/22 02:26:02;;;;;;;5.15;1.17;;;16.00;99.90;;;14.96;100.00;97494.91;5022175;28;20160;-68
2022/08/22 02:28:51;;;;;;;5.25;1.52;;;16.00;99.90;;;14.97;100.00;97499.19;5021548;28;20049;-68
2022/08/22 02:31:42;;;;;;;5.10;1.17;;;15.90;99.90;;;14.81;100.00;97499.28;5021293;28;20084;-68
2022/08/22 02:34:41;;;;;;;4.10;1.10;;;15.70;99.90;;;14.81;100.00;97507.13;5020022;28;20052;-68
2022/08/22 02:37:14;;;;;;;5.13;1.30;;;15.60;99.90;;;14.67;100.00;97506.31;5019352;28;20128;-68
2022/08/22 02:39:47;;;;;;;3.83;1.10;;;15.50;99.90;;;14.64;100.00;97513.38;5021597;28;20132;-67
2022/08/22 02:42:33;;;;;;;4.82;1.27;;;15.30;99.90;;;14.60;100.00;97514.50;5036071;28;20049;-68
2022/08/22 02:45:12;;;;;;;7.28;1.10;;;15.40;99.90;;;14.64;100.00;97507.28;5019981;28;20407;-68
2022/08/22 02:48:31;;;;;;;2.90;1.10;;;15.30;99.90;;;14.61;100.00;97512.72;5020663;28;20921;-68
2022/08/22 02:51:16;;;;;;;19.33;1.70;;;15.30;99.90;;;14.69;100.00;97509.63;5018293;28;20075;-70
2022/08/22 02:54:23;;;;;;;9.25;1.60;;;15.30;99.90;;;14.68;100.00;97513.19;5022565;28;20053;-67
2022/08/22 02:57:09;;;;;;;5.20;1.38;;;15.30;99.90;;;14.63;100.00;97500.41;5020511;28;20459;-68
2022/08/22 03:00:22;;;;;;;5.47;1.25;;;15.30;99.90;;;14.60;100.00;97498.00;5016703;28;20540;-67
2022/08/22 03:03:14;;;;;;;4.18;1.17;;;15.30;99.90;;;14.56;100.00;97494.72;5021125;28;20241;-67
2022/08/22 03:05:44;;;;;;;4.50;0.90;;;15.20;99.90;;;14.50;100.00;97499.44;5017308;28;20046;-68
2022/08/22 03:08:28;;;;;;;5.13;1.25;;;15.20;99.90;;;14.47;100.00;97500.44;5020250;28;20041;-68
2022/08/22 03:11:12;;;;;;;4.22;1.20;;;15.20;99.90;;;14.39;100.00;97505.28;5008891;28;20064;-68
2022/08/22 03:14:16;;;;;;;4.75;1.25;;;15.20;99.90;;;14.39;100.00;97503.53;5020113;28;20049;-70
2022/08/22 03:17:44;;;;;;;5.15;1.00;;;15.20;99.90;;;14.28;100.00;97513.75;5021070;28;20049;-69
2022/08/22 03:20:22;;;;;;;5.43;1.25;;;15.10;99.90;;;14.26;100.00;97506.97;5023156;28;20088;-69
2022/08/22 03:23:35;;;;;;;3.75;1.30;;;15.10;99.90;;;14.18;100.00;97512.59;5019240;28;20052;-70
2022/08/22 03:26:13;;;;;;;;;;;15.00;99.90;;;14.07;100.00;97510.63;5014215;28;20077;-69
2022/08/22 03:29:03;;;;;;;8.45;1.40;;;14.90;99.90;;;14.07;100.00;97512.38;5019247;28;19931;-69
2022/08/22 03:31:31;;;;;;;5.75;1.33;;;14.80;99.90;;;13.78;100.00;97515.75;5018925;28;20050;-69
2022/08/22 03:34:27;;;;;;;7.95;1.38;;;14.80;99.90;;;13.81;100.00;97525.16;5019389;28;20202;-69
2022/08/22 03:37:10;;;;;;;3.00;1.30;;;14.80;99.90;;;13.83;100.00;97523.31;5017062;28;20049;-69
2022/08/22 03:40:18;;;;;;;8.05;1.70;;;14.80;99.90;;;13.78;100.00;97518.34;5022227;28;20628;-69
2022/08/22 03:43:20;;;;;;;5.95;1.50;;;14.70;99.90;;;13.72;100.00;97515.25;4991228;28;20056;-68
2022/08/22 03:46:06;;;;;;;7.80;1.50;;;14.60;99.90;;;13.72;100.00;97518.69;5020950;28;20052;-69
2022/08/22 03:49:01;;;;;;;3.72;1.13;;;14.50;99.90;;;13.56;100.00;97523.09;5025578;28;20068;-69
2022/08/22 03:52:12;;;;;;;6.82;1.50;;;14.40;99.90;;;13.51;100.00;97528.56;5024927;28;20077;-68
2022/08/22 03:55:23;;;;;;;6.13;1.60;;;14.30;99.90;;;13.55;100.00;97534.44;5040966;28;20051;-69
2022/08/22 03:58:21;;;;;;;5.22;1.42;;;14.30;99.90;;;13.53;100.00;97537.13;5026321;28;20128;-71
2022/08/22 04:01:25;;;;;;;4.10;1.20;;;14.30;99.90;;;13.52;100.00;97540.66;5023428;28;20053;-68
2022/08/22 04:04:08;;;;;;;4.07;1.27;;;14.30;99.90;;;13.51;100.00;97544.19;5027579;28;20055;-69
2022/08/22 04:07:06;;;;;;;6.60;1.80;;;14.40;99.90;;;13.54;100.00;97543.19;5025992;28;20159;-69
2022/08/22 04:10:35;;;;;;;5.35;1.05;;;14.40;99.90;;;13.42;100.00;97536.03;5023777;28;20045;-69
2022/08/22 04:13:24;;;;;;;7.40;1.70;;;14.30;99.90;;;13.36;100.00;97532.84;5003887;28;20045;-68
2022/08/22 04:16:19;;;;;;;6.28;1.10;;;14.20;99.90;;;13.32;100.00;97538.28;5027597;28;20124;-68
2022/08/22 04:19:17;;;;;;;2.78;0.90;;;14.20;99.90;;;13.49;100.00;97548.66;5025244;28;20045;-68
2022/08/22 04:22:14;;;;;;;3.30;1.10;;;14.20;99.90;;;13.45;100.00;97547.13;5021480;28;20084;-68
2022/08/22 04:25:14;;;;;;;3.30;0.95;;;14.20;99.90;;;13.45;100.00;97549.75;5023570;28;20054;-67
2022/08/22 04:28:02;;;;;;;6.53;1.42;;;14.20;99.90;;;13.39;100.00;97555.31;5017156;28;20145;-68
2022/08/22 04:30:57;;;;;;;4.75;1.80;;;14.20;99.90;;;13.36;100.00;97558.94;5010200;28;20144;-68
2022/08/22 04:33:38;;;;;;;5.72;1.40;;;14.20;99.90;;;13.15;100.00;97563.47;5024001;28;20042;-69
2022/08/22 04:36:30;;;;;;;7.60;1.50;;;14.10;99.90;;;13.17;100.00;97555.59;5025858;28;20055;-68
2022/08/22 04:39:05;;;;;;;4.28;1.40;;;14.00;99.90;;;13.24;100.00;97561.31;5022864;28;20064;-69
2022/08/22 04:41:54;;;;;;;7.45;1.45;;;14.00;99.90;;;13.18;100.00;97565.94;5023233;28;20061;-70
2022/08/22 04:44:45;;;;;;;4.82;1.10;;;14.00;99.90;;;13.34;100.00;97560.78;5023773;28;20048;-68
2022/08/22 04:48:20;;;;;;;5.40;1.83;;;14.00;99.90;;;13.17;100.00;97556.41;5020456;28;20227;-68
2022/08/22 04:51:02;;;;;;;5.30;1.40;;;14.10;99.90;;;13.19;100.00;97564.16;4982568;28;20053;-69
2022/08/22 04:54:19;;;;;;;4.82;1.58;;;14.10;99.90;;;13.19;100.00;97558.94;5022865;28;20418;-69
2022/08/22 04:57:22;;;;;;;6.72;1.50;;;14.10;99.90;;;13.22;100.00;97571.81;5023664;28;20522;-68
2022/08/22 04:59:49;;;;;;;4.05;1.45;;;14.00;99.90;;;13.24;100.00;97564.75;5017762;28;20164;-68
2022/08/22 05:02:23;;;;;;;3.85;1.35;;;14.10;99.90;;;13.23;100.00;97565.69;5021276;28;20046;-68
2022/08/22 05:05:02;;;;;;;2.47;1.10;;;14.10;99.90;;;13.28;100.00;97566.31;5022187;28;20049;-69
2022/08/22 05:07:46;;;;;;;4.45;1.17;;;14.20;99.90;;;13.38;100.00;97564.03;5037853;28;20073;-68
2022/08/22 05:10:31;;;;;;;3.72;1.20;;;14.20;99.90;;;13.53;100.00;97554.56;5025109;28;20071;-69
2022/08/22 05:13:16;;;;;;;6.28;1.40;;;14.20;99.90;;;13.31;100.00;97560.09;5023510;28;20431;-68
2022/08/22 05:15:49;;;;;;;3.33;1.17;;;14.30;99.90;;;13.31;100.00;97568.75;5023058;28;20059;-69
2022/08/22 05:18:23;;;;;;;2.75;1.23;;;14.30;99.90;;;13.43;100.00;97569.00;5025927;28;20114;-70
2022/08/22 05:21:03;;;;;;;4.20;1.23;;;14.30;99.90;;;13.54;100.00;97572.69;5025094;28;20054;-68
2022/08/22 05:23:58;;;;;;;3.65;1.30;;;14.40;99.90;;;13.70;100.00;97570.09;5023074;28;20126;-69
2022/08/22 05:26:27;;;;;;;5.03;1.17;;;14.50;99.90;;;13.49;100.00;97564.28;5025343;28;20476;-69
2022/08/22 05:29:02;;;;;;;3.10;1.00;;;14.50;99.90;;;13.70;100.00;97574.47;5024029;28;20049;-68
2022/08/22 05:31:34;;;;;;;3.50;1.10;;;14.50;99.90;;;13.72;100.00;97573.47;5026510;28;20158;-68
2022/08/22 05:34:12;;;;;;;10.63;1.30;;;14.60;99.90;;;13.60;100.00;97574.16;5024346;28;20053;-68
2022/08/22 05:37:06;;;;;;;5.80;1.20;;;14.70;99.90;;;13.81;100.00;97567.72;5039826;28;20128;-69
2022/08/22 05:39:37;;;;;;;4.47;1.10;;;14.70;99.90;;;13.86;100.00;97569.25;5024343;28;20484;-68
2022/08/22 05:42:11;;;;;;;3.47;1.08;;;14.80;99.90;;;14.08;100.00;97566.28;5025039;28;20041;-68
2022/08/22 05:44:38;;;;;;;4.60;1.27;;;14.90;99.90;;;14.19;100.00;97564.75;5024372;28;20049;-68
2022/08/22 05:47:32;;;;;;;3.78;1.10;;;15.00;99.90;;;14.29;100.00;97561.59;5024123;28;20050;-68
2022/08/22 05:50:17;;;;;;;4.22;1.10;;;15.20;99.90;;;14.41;100.00;97551.28;5040426;28;20065;-68
2022/08/22 05:53:11;;;;;;;5.25;1.20;;;15.30;99.90;;;14.50;100.00;97556.88;5023510;28;20539;-68
2022/08/22 05:56:03;;;;;;;3.05;1.00;;;15.40;99.90;;;14.73;100.00;97560.78;5027227;28;20227;-68
2022/08/22 05:58:52;;;;;;;4.03;1.33;;;15.50;99.90;;;14.86;100.00;97551.28;5023843;28;20077;-68
2022/08/22 06:01:32;;;;;;;4.22;1.30;;;15.70;99.90;;;15.12;100.00;97541.88;5022554;28;20057;-68
2022/08/22 06:04:07;;;;;;;6.85;1.02;;;15.90;99.90;;;15.39;100.00;97534.03;5020941;28;20224;-68
2022/08/22 06:06:46;;;;;;;3.13;1.00;;;16.10;99.90;;;15.65;100.00;97532.41;5038256;28;20111;-70
2022/08/22 06:09:46;;;;;;;4.80;1.10;;;16.30;99.90;;;15.89;100.00;97534.41;5022948;28;20055;-68
2022/08/22 06:12:25;;;;;;;5.10;1.25;;;16.60;99.90;;;16.15;100.00;97529.25;5023996;28;20129;-68
2022/08/22 06:15:17;;;;;;;3.78;1.05;;;16.80;99.90;;;16.40;100.00;97529.31;5017147;28;20049;-68
2022/08/22 06:17:52;;;;;;;4.28;1.20;;;17.20;99.90;;;16.58;100.00;97514.16;5020423;28;20057;-69
2022/08/22 06:20:25;;;;;;;3.60;1.00;;;17.40;99.90;;;16.73;100.00;97514.88;5000071;28;21496;-67
2022/08/22 06:23:00;;;;;;;4.65;1.23;;;17.60;99.90;;;16.94;100.00;97499.47;5020579;28;20049;-68
2022/08/22 06:25:31;;;;;;;;;;;17.70;99.90;;;17.07;100.00;97497.66;5021287;28;20232;-68
2022/08/22 06:28:15;;;;;;;4.07;1.10;;;18.00;99.90;;;17.30;100.00;97498.66;5036482;28;20012;-68
2022/08/22 06:30:44;;;;;;;3.83;1.10;;;18.20;99.90;;;17.46;100.00;97493.16;5023092;28;20619;-69
2022/08/22 06:33:20;;;;;;;4.57;0.98;;;18.30;99.90;;;17.68;100.00;97481.13;5020650;28;20502;-69
2022/08/22 06:39:10;;;;;;;4.80;1.10;;;18.70;99.90;;;18.05;100.00;97465.31;5013536;28;20168;-68
2022/08/22 06:42:07;;;;;;;3.63;1.05;;;19.00;99.90;;;18.08;100.00;97467.69;5016198;28;20081;-68
2022/08/22 06:44:51;;;;;;;;;;;19.20;99.90;;;18.34;100.00;97465.75;5025118;28;20058;-69
2022/08/22 06:47:27;;;;;;;7.07;1.27;;;19.30;99.90;;;18.45;100.00;97475.41;5025060;28;20347;-69
2022/08/22 06:50:29;;;;;;;3.72;0.90;;;19.50;99.90;;;18.67;100.00;97464.94;5023671;28;20071;-68
2022/08/22 06:52:59;;;;;;;3.75;1.05;;;19.70;99.90;;;18.77;100.00;97455.41;5020956;28;20061;-69
2022/08/22 06:55:29;;;;;;;5.20;1.20;;;19.90;99.90;;;18.95;100.00;97461.03;5024654;28;20050;-68
2022/08/22 06:58:02;;;;;;;5.13;1.33;;;20.00;99.90;;;19.06;100.00;97462.81;5024405;28;20076;-68
2022/08/22 07:00:33;;;;;;;4.93;1.20;;;20.10;99.90;;;18.97;100.00;97451.22;5020091;28;20572;-68
2022/08/22 07:03:07;;;;;;;7.80;1.10;;;20.20;99.90;;;19.23;100.00;97456.22;5036021;28;20534;-69
2022/08/22 07:05:39;;;;;;;3.53;1.00;;;20.30;99.90;;;19.07;100.00;97459.22;5019689;28;20080;-68
2022/08/22 07:08:11;;;;;;;5.38;1.25;;;20.40;99.90;;;19.32;100.00;97454.66;5020604;28;20207;-67
2022/08/22 07:10:56;;;;;;;3.83;1.00;;;20.50;99.90;;;19.37;100.00;97450.69;5021433;28;20045;-67
2022/08/22 07:13:25;;;;;;;2.75;0.80;;;20.60;99.90;;;19.53;100.00;97452.91;5022439;28;20129;-69
2022/08/22 07:15:56;;;;;;;4.85;0.90;;;20.70;99.90;;;19.65;100.00;97445.81;5022780;28;20048;-68
2022/08/22 07:18:28;;;;;;;4.38;1.50;;;20.90;99.90;;;19.41;100.00;97444.22;5023702;28;20124;-69
2022/08/22 07:21:03;;;;;;;4.38;1.00;;;20.90;99.90;;;19.60;100.00;97442.72;5017275;28;20069;-68
2022/08/22 07:23:39;;;;;;;5.07;1.25;;;21.00;99.90;;;19.60;100.00;97440.09;5024163;28;20049;-68
2022/08/22 07:26:19;;;;;;;7.78;1.13;;;21.00;99.90;;;19.82;100.00;97447.94;5025501;28;20127;-68
2022/08/22 07:29:18;;;;;;;5.13;1.23;;;20.90;99.90;;;19.87;100.00;97450.19;5023263;28;20042;-68
2022/08/22 07:32:09;;;;;;;3.70;1.13;;;20.90;99.90;;;19.91;100.00;97438.44;5027080;28;20487;-68
2022/08/22 07:35:23;;;;;;;5.00;1.13;;;21.00;99.90;;;20.01;100.00;97441.97;5026036;28;20056;-69
2022/08/22 07:38:04;;;;;;;3.42;0.88;;;21.10;99.90;;;20.27;100.00;97444.22;5027238;28;20055;-70
2022/08/22 07:40:59;;;;;;;3.65;1.00;;;21.20;99.90;;;20.35;100.00;97440.94;5027566;28;20129;-68
2022/08/22 07:43:47;;;;;;;4.93;1.10;;;21.30;99.90;;;20.27;100.00;97439.81;5027810;28;20067;-69
2022/08/22 07:46:32;;;;;;;6.63;1.00;;;21.40;99.90;;;20.13;100.00;97447.19;5019318;28;20115;-70
2022/08/22 07:49:28;;;;;;;5.93;1.08;;;21.40;99.90;;;20.07;100.00;97448.53;5011160;28;20089;-70
2022/08/22 07:52:07;;;;;;;3.85;1.10;;;21.30;99.90;;;20.18;100.00;97445.81;5017657;28;20132;-69
2022/08/22 07:54:56;;;;;;;4.82;1.00;;;21.30;99.90;;;20.58;100.00;97450.41;5022048;28;20041;-68
2022/08/22 07:57:35;;;;;;;4.80;1.10;;;21.40;99.90;;;20.62;100.00;97449.19;5011890;28;20085;-68
2022/08/22 08:00:12;;;;;;;4.75;1.17;;;21.60;99.90;;;20.31;100.00;97443.00;5021767;28;20135;-70
2022/08/22 08:02:57;;;;;;;3.45;1.10;;;21.70;99.90;;;20.46;100.00;97443.50;5016314;28;20054;-69
2022/08/22 08:05:28;;;;;;;3.30;0.93;;;21.80;99.90;;;20.74;100.00;97442.00;5034052;28;20099;-70
2022/08/22 08:07:56;;;;;;;7.38;1.40;;;21.90;99.90;;;20.64;100.00;97446.38;5033524;28;20447;-68
2022/08/22 08:10:33;;;;;;;4.70;1.20;;;22.00;99.90;;;20.88;100.00;97438.19;5015926;28;20140;-70
2022/08/22 08:13:07;;;;;;;4.18;1.33;;;22.10;99.90;;;21.21;100.00;97436.19;5003245;28;20056;-69
2022/08/22 08:15:36;;;;;;;3.72;1.30;;;22.20;99.90;;;21.52;100.00;97439.59;5034717;28;20128;-69
2022/08/22 08:18:10;;;;;;;3.53;1.17;;;22.40;99.90;;;21.69;100.00;97438.94;5016232;28;20065;-68
2022/08/22 08:20:37;;;;;;;4.45;0.90;;;22.60;99.90;;;22.17;100.00;97431.97;5016895;28;20057;-68
2022/08/22 08:23:09;;;;;;;4.18;0.98;;;22.90;99.90;;;22.53;100.00;97427.75;5016702;28;20048;-69
2022/08/22 08:26:18;;;;;;;4.20;0.93;;;23.20;99.90;;;22.77;100.00;97423.75;5034122;28;20510;-69
2022/08/22 08:28:49;;;;;;;4.07;1.40;;;23.50;99.90;;;22.88;100.00;97426.19;5014013;28;20562;-71
2022/08/22 08:31:36;;;;;;;5.85;1.23;;;23.70;99.90;;;23.48;100.00;97424.91;5035753;28;20522;-69
2022/08/22 08:34:23;;;;;;;7.05;1.20;;;24.20;99.90;;;23.75;100.00;97424.06;5020189;28;20195;-71
2022/08/22 08:37:03;;;;;;;9.37;1.53;;;24.60;99.90;;;24.01;100.00;97421.44;5001080;28;20109;-70
2022/08/22 08:39:53;;;;;;;3.42;1.50;;;25.00;99.30;;;24.51;100.00;97428.78;5020484;28;20176;-71
2022/08/22 08:46:26;;;;;;;5.00;1.20;;;25.80;98.40;;;25.54;100.00;97430.56;5018238;28;20769;-69
2022/08/22 08:49:18;;;;;;;5.32;1.25;;;26.30;96.70;;;25.43;100.00;97431.69;5020657;28;20049;-71
2022/08/22 08:52:11;;;;;;;4.15;1.10;;;;;;;25.56;100.00;97431.22;5018544;28;20049;-69
2022/08/22 08:54:50;;;;;;;6.95;1.40;;;26.60;95.70;;;26.48;100.00;97432.75;5018264;28;20045;-69
2022/08/22 08:57:20;;;;;;;3.40;1.25;;;;;;;26.69;100.00;97429.56;5021183;28;20523;-69
2022/08/22 09:00:10;;;;;;;3.70;1.00;;;;;;;27.49;100.00;97428.59;5013210;28;20137;-69
2022/08/22 09:03:16;;;;;;;4.80;1.33;;;28.40;99.00;;;27.89;100.00;97426.66;5033450;28;20060;-69
2022/08/22 09:06:40;;;;;;;5.57;1.40;;;27.90;93.30;;;28.31;100.00;97427.16;5021255;28;20049;-69
2022/08/22 09:09:37;;;;;;;4.10;1.00;;;28.00;92.40;;;29.26;100.00;97422.97;5019326;28;20049;-69
2022/08/22 09:12:45;;;;;;;7.20;1.10;;;28.20;92.20;;;28.91;100.00;97423.53;5014591;28;20034;-70
2022/08/22 09:16:25;;;;;;;5.85;1.00;;;28.50;91.60;;;29.19;100.00;97425.56;5016849;28;20498;-70
2022/08/22 09:19:31;;;;;;;3.72;0.93;;;29.00;91.50;;;30.29;100.00;97424.47;5020872;28;20132;-71
2022/08/22 09:22:53;;;;;;;3.85;1.02;;;29.40;91.10;;;30.46;100.00;97418.81;4999790;28;20164;-71
2022/08/22 09:26:05;;;;;;;3.50;1.30;;;29.50;90.70;;;30.22;96.41;97421.69;5032588;28;20049;-70
2022/08/22 09:28:52;;;;;;;5.07;1.20;;;29.70;88.40;;;30.63;93.04;97417.47;5018868;28;20511;-69
2022/08/22 09:31:30;;;;;;;3.08;0.98;;;29.90;90.40;;;31.62;97.20;97424.34;5017431;28;20141;-71
2022/08/22 09:34:36;;;;;;;4.70;1.02;;;30.10;90.80;;;31.09;92.67;97419.63;5020215;28;20042;-69
2022/08/22 09:38:07;;;;;;;3.00;1.20;;;30.30;88.10;;;31.97;87.60;97406.25;5017342;28;20077;-70
2022/08/22 09:40:49;;;;;;;2.92;1.25;;;30.20;87.10;;;31.79;81.19;97398.75;4987946;28;20132;-69
2022/08/22 09:43:41;;;;;;;4.65;1.60;;;30.60;91.00;;;30.09;84.28;97404.72;5032173;28;20571;-71
2022/08/22 09:46:31;;;;;;;4.07;1.30;;;30.40;90.70;;;30.43;85.28;97399.44;5010697;28;20136;-71
2022/08/22 09:49:31;;;;;;;6.05;1.20;;;30.30;83.30;;;29.44;92.92;97395.81;5015955;28;20068;-68
2022/08/22 09:52:30;;;;;;;4.50;1.55;;;29.90;91.40;;;29.81;91.07;97387.59;5007647;28;20094;-70
2022/08/22 09:55:15;;;;;;;4.95;1.70;;;29.60;81.70;;;30.09;85.74;97394.81;5015479;28;20049;-69
2022/08/22 09:58:06;;;;;;;3.42;1.20;;;29.80;86.20;;;31.65;85.44;97384.50;5020050;28;20122;-68
2022/08/22 10:01:09;;;;;;;2.88;1.15;;;30.10;86.90;;;32.07;70.84;97385.19;5016618;28;20069;-69
2022/08/22 10:04:13;;;;;;;5.20;1.33;;;30.70;88.30;;;31.60;71.03;97389.66;5029025;28;20068;-70
2022/08/22 10:07:15;;;;;;;2.47;1.13;;;31.20;77.80;;;32.32;68.44;97391.78;5014964;28;20118;-70
2022/08/22 10:10:13;;;;;;;6.03;1.30;;;31.50;77.80;;;32.48;70.43;97392.19;5012924;28;20081;-70
2022/08/22 10:13:10;;;;;;;2.60;0.90;;;31.30;77.30;;;33.54;66.13;97371.34;5018276;28;20068;-71
2022/08/22 10:16:33;;;;;;;3.45;1.33;;;31.80;76.20;;;31.72;65.57;97381.84;5021954;28;20668;-70
2022/08/22 10:19:15;;;;;;;4.43;1.33;;;32.00;73.40;;;32.20;62.12;97378.97;4975679;28;20124;-71
2022/08/22 10:22:29;;;;;;;3.55;1.50;;;31.80;72.30;;;31.61;64.65;97385.13;5003448;28;20053;-71
2022/08/22 10:25:21;;;;;;;4.53;1.30;;;32.50;72.40;;;32.05;57.85;97384.59;5007331;28;20127;-71
2022/08/22 10:28:15;;;;;;;5.30;1.10;;;32.20;69.90;;;31.26;57.93;97378.00;5015898;28;20202;-70
2022/08/22 10:31:07;;;;;;;7.10;1.45;;;32.00;70.30;;;32.86;57.05;97369.16;5020665;28;20064;-70
2022/08/22 10:33:58;;;;;;;4.72;1.35;;;31.90;71.20;;;29.98;67.49;97385.47;5035015;28;20056;-70
2022/08/22 10:37:04;;;;;;;4.30;1.60;;;31.70;70.30;;;29.05;74.34;97373.75;5019426;28;20049;-70
2022/08/22 10:39:46;;;;;;;4.82;1.30;;;30.80;70.30;;;29.34;74.64;97372.06;5019819;28;20053;-70
2022/08/22 10:42:28;;;;;;;6.20;1.58;;;30.00;71.90;;;28.12;78.06;97373.28;5018653;28;20076;-69
2022/08/22 10:45:15;;;;;;;6.65;1.88;;;29.40;72.40;;;28.26;81.96;97365.47;5012892;28;20053;-70
2022/08/22 10:47:52;;;;;;;3.88;1.50;;;28.80;73.60;;;28.15;84.77;97370.25;5021327;28;20057;-69
2022/08/22 10:50:35;;;;;;;3.40;1.25;;;28.60;74.30;;;28.01;84.21;97362.22;5020512;28;20144;-69
2022/08/22 10:53:29;;;;;;;7.00;1.58;;;28.60;73.70;;;28.49;81.08;97357.44;5019587;28;20095;-69
2022/08/22 10:56:08;;;;;;;4.35;1.42;;;29.10;73.40;;;29.54;76.40;97349.03;5018809;28;20129;-70
2022/08/22 10:59:28;;;;;;;3.53;1.25;;;29.50;73.10;;;30.67;70.48;97356.28;5031798;28;20053;-70
2022/08/22 11:02:34;;;;;;;5.25;1.60;;;30.20;72.10;;;31.94;66.72;97352.13;4999427;28;20582;-70
2022/08/22 11:05:26;;;;;;;5.13;1.40;;;30.70;86.90;;;32.29;63.82;97356.25;5018794;28;20049;-70
2022/08/22 11:08:44;;;;;;;4.20;1.38;;;31.70;71.10;;;33.80;55.11;97348.81;5022986;28;20511;-71
2022/08/22 11:11:41;;;;;;;4.38;1.20;;;32.30;69.60;;;34.05;52.23;97348.81;5018616;28;20042;-70
2022/08/22 11:14:30;;;;;;;2.95;1.05;;;33.20;68.40;;;33.77;51.69;97337.66;5003000;28;20522;-71
2022/08/22 11:17:32;;;;;;;8.60;1.45;;;33.50;67.40;;;34.65;51.48;97348.28;5023929;28;20140;-69
2022/08/22 11:20:21;;;;;;;;;;;33.90;67.70;;;33.72;52.48;97341.84;5003416;28;20450;-70
2022/08/22 11:23:22;;;;;;;3.72;1.02;;;34.00;66.30;;;33.52;53.29;97335.75;5022241;28;20055;-70
2022/08/22 11:26:16;;;;;;;3.58;1.33;;;33.50;65.90;;;33.61;58.03;97339.84;5021160;28;20054;-71
2022/08/22 11:29:23;;;;;;;5.35;1.35;;;33.00;67.60;;;34.80;51.85;97336.28;5020198;28;20057;-70
2022/08/22 11:32:33;;;;;;;5.40;1.42;;;33.30;67.00;;;34.52;51.26;97333.03;5018894;28;20164;-71
2022/08/22 11:35:10;;;;;;;2.85;1.08;;;33.80;66.40;;;34.90;55.06;97334.72;5017466;28;20045;-70
2022/08/22 11:38:13;;;;;;;5.03;1.40;;;34.20;67.90;;;35.51;50.08;97319.34;5012889;28;20085;-70
2022/08/22 11:40:59;;;;;;;7.63;1.20;;;34.30;65.70;;;32.90;49.04;97330.06;5018061;28;20061;-70
2022/08/22 11:43:46;;;;;;;3.90;1.30;;;34.10;63.60;;;31.95;55.34;97321.56;5016291;28;20069;-69
2022/08/22 11:46:18;;;;;;;3.28;1.20;;;33.20;64.50;;;33.75;53.29;97321.72;5013609;28;20084;-70
2022/08/22 11:49:02;;;;;;;4.40;1.40;;;32.80;66.00;;;34.26;51.84;97320.69;5017050;28;20108;-70
2022/08/22 11:52:02;;;;;;;3.53;1.10;;;33.00;65.90;;;33.66;54.38;97323.84;5014216;28;20171;-70
2022/08/22 11:54:40;;;;;;;3.95;1.20;;;33.00;65.80;;;31.41;61.03;97318.88;5015431;28;20069;-70
2022/08/22 11:57:29;;;;;;;4.22;1.38;;;32.60;65.70;;;32.23;59.92;97322.19;5016953;28;20726;-70
2022/08/22 12:00:31;;;;;;;8.95;1.55;;;32.30;66.60;;;32.74;59.57;97314.44;5012799;28;20056;-69